Time;durP1;ratioP1;P1;durP2;ratioP2;P2;SDS_P1;SDS_P2;PMS_P1;PMS_P2;Temp;Humidity;BMP_temperature;BMP_pressure;BME280_temperature;BME280_humidity;BME280_pressure;Samples;Min_cycle;Max_cycle;Signal;HPM_P1;HPM_P2
2023/11/29 00:02:55;;;;;;;2.85;2.25;;;;;;;-2.35;93.00;148079.03;10506731;28;20045;-70
2023/11/29 00:07:57;;;;;;;2.83;2.33;;;;;;;-2.41;93.70;148063.72;10507177;28;20040;-69
2023/11/29 00:12:58;;;;;;;2.40;2.03;;;;;;;-2.45;92.81;148053.50;10488730;28;20049;-71
2023/11/29 00:18:00;;;;;;;2.95;2.63;;;;;;;-2.45;93.92;148053.50;10506053;28;20112;-71
2023/11/29 00:23:02;;;;;;;2.58;2.38;;;;;;;-2.41;91.30;148065.00;10505998;28;20123;-70
2023/11/29 00:28:04;;;;;;;2.42;2.22;;;;;;;-2.42;91.80;148061.16;10506932;28;20040;-70
2023/11/29 00:33:06;;;;;;;3.05;2.67;;;;;;;-2.44;92.76;148056.03;10508013;28;20403;-69
2023/11/29 00:38:07;;;;;;;2.33;2.13;;;;;;;-2.42;93.18;148062.44;10505947;28;20502;-70
2023/11/29 00:43:09;;;;;;;2.38;2.13;;;;;;;-2.42;92.06;148062.44;10488726;28;20079;-70
2023/11/29 00:48:16;;;;;;;2.28;1.92;;;;;;;-2.44;93.13;148057.31;10506602;28;20407;-71
2023/11/29 00:53:19;;;;;;;2.28;2.00;;;;;;;-2.43;91.83;148058.63;10506145;28;20055;-71
2023/11/29 00:58:21;;;;;;;1.77;1.67;;;;;;;-2.35;89.83;148079.03;10487397;28;20044;-70
2023/11/29 01:03:22;;;;;;;2.33;1.85;;;;;;;-2.45;92.17;148054.75;10505758;28;20055;-70
2023/11/29 01:08:25;;;;;;;3.47;2.47;;;;;;;-2.41;91.58;148063.72;10505636;28;20047;-70
2023/11/29 01:13:29;;;;;;;2.38;2.15;;;;;;;-2.47;92.58;148048.41;10487124;28;20534;-71
2023/11/29 01:18:32;;;;;;;2.97;2.53;;;;;;;-2.51;92.36;148039.44;10504425;28;20064;-69
2023/11/29 01:23:34;;;;;;;2.92;2.60;;;;;;;-2.57;93.18;148025.41;10470571;28;20049;-71
2023/11/29 01:28:36;;;;;;;3.10;2.70;;;;;;;-2.76;94.70;147975.59;10486084;28;20062;-70
2023/11/29 01:33:39;;;;;;;3.70;3.15;;;;;;;-3.02;96.97;147910.44;10486214;28;20511;-69
2023/11/29 01:38:41;;;;;;;3.25;2.95;;;;;;;-3.14;97.98;147881.13;10486435;28;20047;-69
2023/11/29 01:43:43;;;;;;;3.92;3.60;;;;;;;-3.21;97.96;147863.22;10503682;28;20101;-70
2023/11/29 01:48:45;;;;;;;3.42;3.13;;;;;;;-3.09;96.14;147893.88;10485910;28;20136;-69
2023/11/29 01:53:50;;;;;;;3.13;2.50;;;;;;;-3.42;98.15;147812.16;10484866;28;20098;-70
2023/11/29 01:58:54;;;;;;;4.90;4.07;;;;;;;-3.53;98.50;147782.81;10503498;28;20036;-70
2023/11/29 02:03:55;;;;;;;3.33;2.95;;;;;;;-3.73;99.50;147734.31;10484375;28;20057;-69
2023/11/29 02:08:57;;;;;;;3.30;3.00;;;;;;;-3.66;100.00;147752.19;10503196;28;20047;-70
2023/11/29 02:13:59;;;;;;;4.05;2.95;;;;;;;-3.64;99.73;147757.28;10502969;28;20153;-70
2023/11/29 02:19:01;;;;;;;3.50;3.15;;;;;;;-3.55;99.60;147778.97;10485238;28;20098;-70
2023/11/29 02:24:17;;;;;;;4.10;3.47;;;;;;;-3.68;100.00;147745.78;10502861;28;20040;-70
2023/11/29 02:29:20;;;;;;;3.83;3.50;;;;;;;-3.51;100.00;147787.91;10502116;28;20086;-70
2023/11/29 02:34:22;;;;;;;3.58;3.28;;;;;;;-3.30;99.75;147841.53;10483669;28;20512;-70
2023/11/29 02:40:15;;;;;;;3.92;3.42;;;;;;;-3.53;100.00;147782.81;10501209;28;20047;-69
2023/11/29 02:45:17;;;;;;;5.25;4.25;;;;;;;-3.36;100.00;147827.50;10501346;28;20040;-70
2023/11/29 02:50:19;;;;;;;4.88;3.90;;;;;;;-3.32;100.00;147836.38;10482635;28;20439;-70
2023/11/29 02:55:21;;;;;;;5.78;4.32;;;;;;;-3.43;100.00;147808.34;10482810;28;20057;-70
2023/11/29 03:00:22;;;;;;;4.38;3.97;;;;;;;-3.35;100.00;147830.03;10482664;28;20048;-71
2023/11/29 03:05:24;;;;;;;4.68;3.88;;;;;;;-3.57;100.00;147775.16;10501094;28;20049;-71
2023/11/29 03:10:26;;;;;;;4.00;3.60;;;;;;;-3.56;100.00;147777.69;10482141;28;20044;-70
2023/11/29 03:15:28;;;;;;;4.97;4.47;;;;;;;-3.68;100.00;147745.78;10499740;28;20048;-70
2023/11/29 03:20:29;;;;;;;6.30;4.22;;;;;;;-3.83;100.00;147708.81;10500804;28;20072;-70
2023/11/29 03:25:31;;;;;;;6.20;4.30;;;;;;;-3.96;100.00;147676.91;10500241;28;20430;-70
2023/11/29 03:30:33;;;;;;;4.63;4.20;;;;;;;-3.97;100.00;147673.09;10500237;28;20041;-69
2023/11/29 03:35:35;;;;;;;4.95;4.45;;;;;;;-4.19;100.00;147619.50;10500129;28;20048;-70
2023/11/29 03:40:36;;;;;;;4.72;4.32;;;;;;;-4.42;100.00;147560.84;10481268;28;20089;-70
2023/11/29 03:45:38;;;;;;;6.93;4.93;;;;;;;-4.54;100.00;147530.25;10481741;28;20573;-70
2023/11/29 03:50:40;;;;;;;5.82;4.90;;;;;;;-4.55;100.00;147528.97;10481985;28;20135;-70
2023/11/29 03:55:41;;;;;;;5.13;4.63;;;;;;;-4.66;100.00;147502.19;10482363;28;20048;-69
2023/11/29 04:00:43;;;;;;;7.00;4.25;;;;;;;-4.61;100.00;147514.91;10464206;28;20098;-70
2023/11/29 04:05:45;;;;;;;4.90;3.97;;;;;;;-4.74;100.00;147481.75;10480953;28;20114;-69
2023/11/29 04:10:48;;;;;;;5.13;4.25;;;;;;;-4.78;100.00;147471.63;10481287;28;20128;-70
2023/11/29 04:15:50;;;;;;;6.43;4.45;;;;;;;-4.73;100.00;147484.34;10480481;28;20116;-69
2023/11/29 04:20:52;;;;;;;6.78;4.28;;;;;;;-4.61;100.00;147514.91;10480078;28;20041;-69
2023/11/29 04:25:55;;;;;;;4.00;3.50;;;;;;;-4.63;100.00;147508.56;10501332;28;20049;-69
2023/11/29 04:30:57;;;;;;;4.10;3.40;;;;;;;-4.59;100.00;147518.78;10487928;28;20492;-69
2023/11/29 04:35:59;;;;;;;4.60;3.70;;;;;;;-4.65;100.00;147504.75;10487859;28;20066;-69
2023/11/29 04:41:01;;;;;;;5.28;4.68;;;;;;;-4.74;100.00;147481.75;10506324;28;20072;-69
2023/11/29 04:46:03;;;;;;;5.40;4.47;;;;;;;-4.84;100.00;147456.28;10505236;28;20040;-69
2023/11/29 04:51:05;;;;;;;5.07;3.80;;;;;;;-4.88;100.00;147446.09;10486975;28;20048;-69
2023/11/29 04:56:08;;;;;;;4.32;3.83;;;;;;;-5.00;100.00;147415.47;10487141;28;20040;-69
2023/11/29 05:01:10;;;;;;;4.38;3.70;;;;;;;-4.93;100.00;147433.34;10504667;28;20036;-69
2023/11/29 05:06:12;;;;;;;4.07;3.33;;;;;;;-5.03;100.00;147409.13;10503890;28;20040;-70
2023/11/29 05:11:14;;;;;;;5.57;4.05;;;;;;;-4.64;100.00;147507.28;10505522;28;20037;-70
2023/11/29 05:16:16;;;;;;;4.60;3.13;;;;;;;-4.56;100.00;147526.38;10504160;28;20100;-71
2023/11/29 05:21:17;;;;;;;3.33;3.03;;;;;;;-4.47;99.80;147548.06;10503790;28;20072;-70
2023/11/29 05:26:19;;;;;;;3.72;3.38;;;;;;;-4.64;99.45;147506.03;10502629;28;20458;-70
2023/11/29 05:31:21;;;;;;;3.97;2.60;;;;;;;-4.64;98.74;147506.03;10502967;28;20540;-70
2023/11/29 05:36:24;;;;;;;3.40;2.78;;;;;;;-4.92;100.00;147435.88;10484420;28;20509;-69
2023/11/29 05:41:26;;;;;;;5.25;2.83;;;;;;;-4.80;100.00;147465.22;10484858;28;20033;-71
2023/11/29 05:46:29;;;;;;;2.78;2.55;;;;;;;-4.72;99.16;147486.91;10501989;28;20045;-70
2023/11/29 05:51:31;;;;;;;3.30;3.00;;;;;;;-4.79;99.47;147467.75;10484445;28;20090;-70
2023/11/29 05:56:33;;;;;;;3.38;2.30;;;;;;;-4.67;98.77;147499.63;10484654;28;20568;-70
2023/11/29 06:01:36;;;;;;;2.88;2.42;;;;;;;-4.88;99.74;147446.09;10485139;28;20098;-70
2023/11/29 06:06:38;;;;;;;3.47;2.80;;;;;;;-4.89;99.89;147443.56;10483449;28;20054;-69
2023/11/29 06:11:40;;;;;;;2.90;2.63;;;;;;;-4.86;98.40;147451.22;10502883;28;20090;-69
2023/11/29 06:16:42;;;;;;;3.25;2.92;;;;;;;-4.82;99.90;147461.41;10502602;28;20048;-70
2023/11/29 06:21:44;;;;;;;3.67;3.15;;;;;;;-4.70;100.00;147491.97;10468044;28;20510;-70
2023/11/29 06:26:46;;;;;;;3.35;3.03;;;;;;;-4.79;100.00;147469.03;10500831;28;20048;-69
2023/11/29 06:31:48;;;;;;;4.22;3.70;;;;;;;-4.85;100.00;147455.03;10501909;28;20048;-70
2023/11/29 06:36:50;;;;;;;5.82;4.03;;;;;;;-4.59;100.00;147520.03;10500555;28;20040;-70
2023/11/29 06:41:52;;;;;;;3.53;2.90;;;;;;;-4.44;99.07;147557.00;10483149;28;20041;-70
2023/11/29 06:46:56;;;;;;;3.33;2.90;;;;;;;-4.30;97.09;147591.44;10500040;28;20071;-70
2023/11/29 06:51:57;;;;;;;4.55;2.10;;;;;;;-4.39;97.25;147568.47;10499127;28;20037;-70
2023/11/29 06:57:00;;;;;;;3.85;2.45;;;;;;;-4.18;95.96;147622.06;10500920;28;20072;-67
2023/11/29 07:02:04;;;;;;;2.25;2.05;;;;;;;-4.22;95.43;147611.84;10482773;28;20542;-69
2023/11/29 07:07:07;;;;;;;3.40;2.47;;;;;;;-3.98;93.06;147670.56;10501185;28;20154;-69
2023/11/29 07:12:08;;;;;;;2.53;2.13;;;;;;;-4.06;93.62;147651.41;10501854;28;20491;-68
2023/11/29 07:17:10;;;;;;;2.75;2.38;;;;;;;-4.16;94.95;147625.84;10483168;28;20048;-68
2023/11/29 07:22:15;;;;;;;2.30;1.88;;;;;;;-3.97;93.58;147674.38;10499908;28;20040;-67
2023/11/29 07:27:17;;;;;;;2.28;1.65;;;;;;;-3.75;90.54;147729.22;10484548;28;20131;-68
2023/11/29 07:32:22;;;;;;;2.67;1.90;;;;;;;-3.60;91.16;147767.47;10482109;28;20072;-69
2023/11/29 07:37:24;;;;;;;2.00;1.77;;;;;;;-3.43;89.48;147808.34;10500709;28;20044;-69
2023/11/29 07:42:26;;;;;;;1.58;1.40;;;;;;;-3.29;90.26;147844.06;10500513;28;20072;-68
2023/11/29 07:47:29;;;;;;;2.25;1.55;;;;;;;-3.14;88.82;147881.13;10499326;28;20131;-69
2023/11/29 07:52:36;;;;;;;2.65;1.95;;;;;;;-3.05;86.64;147905.38;10480295;28;20051;-68
2023/11/29 07:57:37;;;;;;;3.30;2.13;;;;;;;-3.13;87.81;147883.66;10480189;28;20044;-68
2023/11/29 08:02:41;;;;;;;1.90;1.65;;;;;;;-3.30;90.02;147842.78;10486215;28;20094;-69
2023/11/29 08:07:42;;;;;;;2.13;1.85;;;;;;;-3.28;89.37;147846.59;10488652;28;20044;-68
2023/11/29 08:12:46;;;;;;;2.22;2.03;;;;;;;-2.99;87.81;147919.41;10506583;28;20115;-68
2023/11/29 08:17:47;;;;;;;2.88;1.80;;;;;;;-3.05;88.60;147905.38;10488318;28;20040;-68
2023/11/29 08:22:50;;;;;;;2.75;1.70;;;;;;;-2.82;86.76;147961.53;10506017;28;20037;-69
2023/11/29 08:27:53;;;;;;;2.63;2.00;;;;;;;-2.57;85.19;148025.41;10505858;28;20098;-69
2023/11/29 08:32:56;;;;;;;3.08;2.25;;;;;;;-2.74;87.45;147981.97;10505056;28;20060;-71
2023/11/29 08:37:58;;;;;;;4.18;2.90;;;;;;;-2.41;86.00;148065.00;10503557;28;20131;-70
2023/11/29 08:43:01;;;;;;;2.72;2.20;;;;;;;-2.33;86.20;148084.16;10503428;28;20156;-69
2023/11/29 08:48:15;;;;;;;3.55;2.47;;;;;;;-2.40;87.45;148066.25;10505920;28;20058;-70
2023/11/29 08:53:17;;;;;;;2.50;2.08;;;;;;;-2.39;86.83;148070.13;10504452;28;20119;-70
2023/11/29 08:58:27;;;;;;;4.15;2.00;;;;;;;-2.09;85.43;148144.19;10503285;28;20043;-70
2023/11/29 09:03:29;;;;;;;2.85;2.20;;;;;;;-1.99;83.78;148169.78;10503927;28;20068;-70
2023/11/29 09:08:31;;;;;;;2.47;2.00;;;;;;;-2.04;86.82;148156.97;10485986;28;20049;-70
2023/11/29 09:13:34;;;;;;;3.40;2.63;;;;;;;-1.91;86.45;148188.91;10503484;28;20036;-70
2023/11/29 09:18:36;;;;;;;2.53;2.00;;;;;;;-1.61;83.00;148265.63;10487435;28;20040;-70
2023/11/29 09:23:38;;;;;;;11.98;3.35;;;;;;;-1.82;84.08;148213.19;10503042;28;20036;-70
2023/11/29 09:28:40;;;;;;;8.52;3.67;;;;;;;-1.69;84.66;148245.16;10502868;28;20052;-70
2023/11/29 09:33:42;;;;;;;4.40;3.28;;;;;;;-1.44;85.89;148307.81;10502990;28;20040;-70
2023/11/29 09:38:44;;;;;;;3.05;2.65;;;;;;;-1.24;82.28;148357.66;10501861;28;20055;-70
2023/11/29 09:43:47;;;;;;;3.20;2.85;;;;;;;-1.17;82.96;148374.31;10483327;28;20045;-70
2023/11/29 09:48:49;;;;;;;3.75;3.03;;;;;;;-1.26;85.87;148352.56;10502480;28;20036;-70
2023/11/29 09:53:51;;;;;;;2.65;2.40;;;;;;;-1.20;84.91;148367.91;10501468;28;20037;-70
2023/11/29 09:58:52;;;;;;;3.55;2.97;;;;;;;-1.05;86.19;148405.00;10501671;28;20094;-70
2023/11/29 10:04:04;;;;;;;3.58;2.92;;;;;;;-0.97;86.46;148424.16;10502397;28;20032;-71
2023/11/29 10:09:11;;;;;;;3.28;2.83;;;;;;;-0.58;84.42;148522.69;10500901;28;20102;-70
2023/11/29 10:14:13;;;;;;;4.00;3.60;;;;;;;-0.59;84.89;148521.41;10501727;28;20037;-69
2023/11/29 10:19:17;;;;;;;6.10;4.32;;;;;;;-0.51;86.10;148541.88;10500368;28;20044;-69
2023/11/29 10:24:25;;;;;;;4.10;3.30;;;;;;;-0.31;83.21;148590.50;10499623;28;20040;-70
2023/11/29 10:29:27;;;;;;;2.63;2.33;;;;;;;-0.16;80.14;148627.66;10493209;28;20468;-70
2023/11/29 10:34:33;;;;;;;2.53;1.90;;;;;;;-0.23;81.38;148610.97;10500172;28;20051;-70
2023/11/29 10:39:37;;;;;;;1.67;1.30;;;;;;;-0.05;81.48;148657.06;10500076;28;20043;-69
2023/11/29 10:44:40;;;;;;;1.25;1.10;;;;;;;0.29;78.26;148741.56;10485486;28;20571;-70
2023/11/29 10:49:48;;;;;;;1.95;1.55;;;;;;;0.30;79.83;148744.13;10499628;28;20517;-69
2023/11/29 10:54:52;;;;;;;1.35;1.25;;;;;;;0.38;81.30;148764.63;10499475;28;20036;-70
2023/11/29 11:00:07;;;;;;;2.10;1.70;;;;;;;0.53;79.01;148801.75;10499094;28;20044;-69
2023/11/29 11:05:10;;;;;;;1.88;1.60;;;;;;;1.05;78.63;148932.41;10500349;28;20047;-69
2023/11/29 11:10:24;;;;;;;1.63;1.35;;;;;;;1.92;72.64;149150.34;10499417;28;20518;-69
2023/11/29 11:15:28;;;;;;;1.40;1.05;;;;;;;2.97;67.73;149414.63;10500587;28;20444;-69
2023/11/29 11:20:40;;;;;;;1.50;1.15;;;;;;;3.08;67.06;149442.81;10498580;28;20402;-68
2023/11/29 11:25:42;;;;;;;1.20;1.10;;;;;;;3.84;63.48;149632.84;10498135;28;20049;-69
2023/11/29 11:30:43;;;;;;;1.92;1.35;;;;;;;3.18;64.25;149468.47;10498825;28;20047;-69
2023/11/29 11:35:46;;;;;;;1.48;1.20;;;;;;;3.03;64.55;149430.00;10498113;28;20049;-68
2023/11/29 11:40:49;;;;;;;2.05;1.48;;;;;;;2.59;64.43;149319.63;10498650;28;20055;-68
2023/11/29 11:45:52;;;;;;;1.25;1.10;;;;;;;1.85;66.89;149132.38;10498430;28;20407;-68
2023/11/29 11:50:54;;;;;;;1.42;1.00;;;;;;;1.40;71.44;149019.56;10498659;28;20124;-68
2023/11/29 11:55:56;;;;;;;2.10;1.35;;;;;;;1.33;71.36;149002.94;10497450;28;20075;-69
2023/11/29 12:00:57;;;;;;;1.58;1.33;;;;;;;1.33;69.81;149002.94;10497488;28;20039;-69
2023/11/29 12:06:04;;;;;;;1.20;1.10;;;;;;;1.31;70.54;148996.50;10497634;28;20508;-67
2023/11/29 12:11:09;;;;;;;1.30;1.20;;;;;;;0.96;72.61;148909.34;10498142;28;20061;-68
2023/11/29 12:16:13;;;;;;;1.10;1.00;;;;;;;0.99;73.15;148918.34;10498240;28;20415;-67
2023/11/29 12:21:15;;;;;;;1.92;1.33;;;;;;;1.02;73.57;148924.75;10497369;28;20455;-67
2023/11/29 12:26:17;;;;;;;2.83;1.60;;;;;;;1.28;72.85;148990.06;10496950;28;20119;-67
2023/11/29 12:31:19;;;;;;;1.65;1.10;;;;;;;1.23;70.99;148977.25;10497740;28;20437;-67
2023/11/29 12:36:21;;;;;;;3.15;1.67;;;;;;;1.33;71.56;149001.59;10496949;28;20496;-67
2023/11/29 12:41:23;;;;;;;1.38;1.27;;;;;;;1.50;72.82;149045.19;10495816;28;20044;-67
2023/11/29 12:46:24;;;;;;;2.25;1.77;;;;;;;1.39;73.80;149018.28;10457692;28;20037;-67
2023/11/29 12:51:27;;;;;;;1.95;1.30;;;;;;;1.44;74.38;149031.09;10464733;28;20041;-67
2023/11/29 12:56:28;;;;;;;1.77;1.60;;;;;;;1.32;75.78;149000.34;10464327;28;20048;-67
2023/11/29 13:01:32;;;;;;;3.75;1.83;;;;;;;1.34;75.33;149005.47;10463582;28;20037;-68
2023/11/29 13:06:33;;;;;;;2.13;1.58;;;;;;;1.26;76.33;148984.97;10462683;28;20045;-68
2023/11/29 13:11:36;;;;;;;1.75;1.45;;;;;;;1.32;75.63;149000.34;10462548;28;20116;-68
2023/11/29 13:16:37;;;;;;;2.15;1.70;;;;;;;1.16;77.29;148960.63;10501423;28;20052;-67
2023/11/29 13:21:39;;;;;;;1.63;1.52;;;;;;;1.17;77.21;148963.19;10504245;28;20093;-68
2023/11/29 13:26:41;;;;;;;2.40;2.20;;;;;;;1.26;76.23;148984.97;10503752;28;20045;-68
2023/11/29 13:31:43;;;;;;;1.77;1.55;;;;;;;1.21;76.45;148972.16;10503402;28;20044;-67
2023/11/29 13:36:44;;;;;;;2.85;2.30;;;;;;;1.13;78.16;148952.94;10502691;28;20078;-66
2023/11/29 13:41:46;;;;;;;2.78;1.98;;;;;;;1.44;76.67;149031.09;10499599;28;20098;-68
2023/11/29 13:46:48;;;;;;;2.00;1.80;;;;;;;1.25;78.27;148982.41;10468495;28;20048;-69
2023/11/29 13:51:50;;;;;;;2.30;2.03;;;;;;;1.17;76.40;148961.91;10503514;28;20033;-67
2023/11/29 13:57:09;;;;;;;2.67;2.17;;;;;;;1.30;74.28;148995.22;10502539;28;20492;-67
2023/11/29 14:02:13;;;;;;;2.00;1.70;;;;;;;1.15;76.15;148956.75;10503207;28;20037;-67
2023/11/29 14:07:21;;;;;;;2.03;1.83;;;;;;;1.30;75.55;148995.22;10503920;28;20055;-67
2023/11/29 14:12:22;;;;;;;2.63;2.08;;;;;;;1.05;79.12;148931.16;10503165;28;20036;-67
2023/11/29 14:17:24;;;;;;;2.53;1.85;;;;;;;0.99;77.46;148918.34;10502989;28;20048;-67
2023/11/29 14:22:26;;;;;;;2.33;1.70;;;;;;;1.05;77.36;148931.16;10502832;28;20443;-67
2023/11/29 14:27:28;;;;;;;2.50;2.13;;;;;;;0.91;78.47;148897.84;10503008;28;20044;-67
2023/11/29 14:32:41;;;;;;;3.00;2.33;;;;;;;0.57;81.76;148810.72;10503111;28;20067;-68
2023/11/29 14:37:43;;;;;;;2.58;2.30;;;;;;;0.68;79.49;148840.19;10502622;28;20068;-68
2023/11/29 14:42:46;;;;;;;3.22;2.30;;;;;;;0.64;81.00;148828.66;10502028;28;20442;-67
2023/11/29 14:47:48;;;;;;;2.72;2.33;;;;;;;0.68;81.59;148840.19;10502140;28;20053;-69
2023/11/29 14:52:50;;;;;;;3.08;2.78;;;;;;;0.54;83.72;148804.34;10504257;28;20036;-68
2023/11/29 14:57:52;;;;;;;2.88;2.58;;;;;;;0.62;83.32;148824.84;10504799;28;20056;-67
2023/11/29 15:02:54;;;;;;;6.35;4.43;;;;;;;0.47;84.87;148787.66;10505462;28;20036;-68
2023/11/29 15:07:55;;;;;;;4.70;3.00;;;;;;;0.43;86.45;148777.41;10506556;28;20132;-68
2023/11/29 15:12:58;;;;;;;3.90;3.05;;;;;;;0.48;86.19;148790.22;10507180;28;20036;-67
2023/11/29 15:18:00;;;;;;;3.33;2.72;;;;;;;0.58;85.19;148814.59;10505013;28;20464;-68
2023/11/29 15:23:02;;;;;;;3.95;2.92;;;;;;;0.67;84.93;148837.66;10501476;28;20041;-68
2023/11/29 15:28:04;;;;;;;3.25;2.95;;;;;;;0.69;84.33;148842.75;10503018;28;20044;-68
2023/11/29 15:33:06;;;;;;;3.10;2.80;;;;;;;0.63;86.63;148826.13;10502980;28;20079;-67
2023/11/29 15:38:08;;;;;;;3.05;2.50;;;;;;;0.75;86.10;148858.16;10501007;28;20051;-66
2023/11/29 15:43:10;;;;;;;2.70;2.50;;;;;;;0.65;91.21;148831.22;10499832;28;20041;-67
2023/11/29 15:48:12;;;;;;;4.57;4.18;;;;;;;0.54;95.19;148803.06;10498904;28;20040;-67
2023/11/29 15:53:14;;;;;;;3.47;2.95;;;;;;;0.53;97.88;148800.47;10499572;28;20041;-66
2023/11/29 15:58:16;;;;;;;4.63;4.18;;;;;;;0.48;98.48;148790.22;10498221;28;20424;-67
2023/11/29 16:03:17;;;;;;;3.70;2.78;;;;;;;0.45;99.90;148781.28;10500069;28;20117;-69
2023/11/29 16:08:19;;;;;;;4.15;3.50;;;;;;;0.31;100.00;148746.72;10500789;28;20114;-67
2023/11/29 16:13:21;;;;;;;4.70;4.25;;;;;;;0.37;99.78;148762.06;10500911;28;20044;-68
2023/11/29 16:18:23;;;;;;;4.05;3.63;;;;;;;0.25;100.00;148731.31;10503305;28;20040;-67
2023/11/29 16:23:28;;;;;;;3.60;3.10;;;;;;;0.51;97.16;148796.63;10503837;28;20562;-66
2023/11/29 16:28:33;;;;;;;3.75;2.88;;;;;;;0.50;96.69;148794.09;10507889;28;20052;-68
2023/11/29 16:33:35;;;;;;;3.85;3.55;;;;;;;0.49;96.13;148791.53;10509186;28;20045;-67
2023/11/29 16:38:37;;;;;;;3.03;2.70;;;;;;;0.63;94.40;148827.38;10491139;28;20053;-68
2023/11/29 16:43:39;;;;;;;2.70;2.35;;;;;;;0.63;94.65;148826.13;10507758;28;20040;-67
2023/11/29 16:48:41;;;;;;;2.58;2.35;;;;;;;0.50;96.17;148795.38;10506527;28;20055;-68
2023/11/29 16:53:43;;;;;;;2.45;2.20;;;;;;;0.83;93.71;148877.31;10506515;28;20067;-67
2023/11/29 16:58:45;;;;;;;3.50;2.35;;;;;;;0.76;96.17;148859.41;10506216;28;20040;-67
2023/11/29 17:03:46;;;;;;;2.67;2.25;;;;;;;0.72;98.02;148849.16;10505313;28;20055;-67
2023/11/29 17:08:52;;;;;;;2.80;2.53;;;;;;;0.65;98.07;148831.22;10504994;28;20077;-67
2023/11/29 17:13:54;;;;;;;3.13;2.83;;;;;;;0.67;96.66;148837.66;10505070;28;20506;-67
2023/11/29 17:18:56;;;;;;;2.92;2.63;;;;;;;0.65;95.71;148832.50;10504421;28;20040;-67
2023/11/29 17:24:03;;;;;;;2.30;2.08;;;;;;;0.90;94.41;148894.00;10496853;28;20128;-67
2023/11/29 17:29:05;;;;;;;1.83;1.67;;;;;;;0.84;93.79;148878.59;10504330;28;20040;-67
2023/11/29 17:34:07;;;;;;;2.05;1.85;;;;;;;0.76;94.98;148859.41;10503683;28;20092;-67
2023/11/29 17:39:09;;;;;;;2.10;1.67;;;;;;;0.81;95.05;148870.94;10503412;28;20075;-68
2023/11/29 17:44:11;;;;;;;2.80;2.40;;;;;;;0.75;95.79;148858.16;10503008;28;20424;-69
2023/11/29 17:49:13;;;;;;;2.35;2.10;;;;;;;0.88;94.26;148888.84;10503711;28;20036;-68
2023/11/29 17:54:15;;;;;;;2.20;2.00;;;;;;;1.10;91.87;148945.22;10503967;28;20086;-68
2023/11/29 17:59:17;;;;;;;2.25;2.05;;;;;;;1.11;91.14;148946.56;10505804;28;20048;-66
2023/11/29 18:04:19;;;;;;;2.72;2.45;;;;;;;1.15;90.53;148958.06;10501581;28;20460;-66
2023/11/29 18:09:21;;;;;;;1.85;1.70;;;;;;;1.14;91.57;148955.47;10502873;28;20056;-65
2023/11/29 18:14:23;;;;;;;2.55;2.05;;;;;;;1.15;91.48;148956.75;10501712;28;20044;-69
2023/11/29 18:19:25;;;;;;;7.25;2.00;;;;;;;1.11;91.94;148946.56;10502577;28;20070;-66
2023/11/29 18:24:26;;;;;;;2.22;1.83;;;;;;;1.07;92.40;148937.56;10502922;28;20041;-66
2023/11/29 18:29:28;;;;;;;2.65;2.30;;;;;;;1.17;91.17;148961.91;10502165;28;20106;-66
2023/11/29 18:34:30;;;;;;;2.53;2.08;;;;;;;1.16;91.81;148960.63;10502236;28;20056;-66
2023/11/29 18:39:32;;;;;;;2.92;2.50;;;;;;;1.10;92.18;148943.94;10502277;28;20040;-67
2023/11/29 18:44:36;;;;;;;2.83;2.33;;;;;;;1.20;91.98;148970.88;10499982;28;20492;-68
2023/11/29 18:49:39;;;;;;;3.20;2.90;;;;;;;1.16;92.26;148959.34;10502302;28;20064;-68
2023/11/29 18:54:41;;;;;;;2.85;2.17;;;;;;;1.24;91.41;148981.16;10502021;28;20032;-67
2023/11/29 18:59:45;;;;;;;2.20;2.00;;;;;;;1.27;90.52;148988.81;10502535;28;20043;-66
2023/11/29 19:04:47;;;;;;;2.50;2.30;;;;;;;1.36;90.67;149009.31;10501889;28;20115;-66
2023/11/29 19:09:48;;;;;;;2.60;2.33;;;;;;;1.21;92.37;148972.16;10502519;28;20055;-67
2023/11/29 19:14:51;;;;;;;3.03;2.72;;;;;;;1.05;93.34;148931.16;10500628;28;20496;-66
2023/11/29 19:19:52;;;;;;;3.30;2.88;;;;;;;0.96;94.51;148909.34;10503672;28;20415;-66
2023/11/29 19:24:54;;;;;;;3.53;2.70;;;;;;;1.07;93.39;148937.56;10502853;28;20573;-66
2023/11/29 19:29:56;;;;;;;3.47;3.17;;;;;;;0.89;94.83;148892.72;10483585;28;20044;-66
2023/11/29 19:34:58;;;;;;;3.10;2.78;;;;;;;1.16;91.80;148959.34;10501046;28;20045;-67
2023/11/29 19:40:00;;;;;;;3.15;2.83;;;;;;;1.17;91.91;148961.91;10501617;28;20083;-67
2023/11/29 19:45:02;;;;;;;3.15;2.85;;;;;;;1.27;90.61;148987.53;10500208;28;20079;-67
2023/11/29 19:50:04;;;;;;;3.33;2.85;;;;;;;1.25;91.48;148982.41;10500160;28;20068;-69
2023/11/29 19:55:06;;;;;;;3.20;2.53;;;;;;;1.12;92.81;148949.09;10497335;28;20072;-67
2023/11/29 20:00:08;;;;;;;3.20;2.90;;;;;;;0.93;93.35;148902.97;10507284;28;20119;-65
2023/11/29 20:05:10;;;;;;;3.28;2.95;;;;;;;1.10;92.30;148945.22;10506487;28;20060;-67
2023/11/29 20:10:12;;;;;;;4.93;3.03;;;;;;;1.30;91.28;148993.94;10507335;28;20130;-66
2023/11/29 20:15:14;;;;;;;3.55;3.13;;;;;;;1.14;92.13;148954.19;10506610;28;20094;-67
2023/11/29 20:20:16;;;;;;;4.28;3.17;;;;;;;0.96;93.85;148910.63;10505086;28;20463;-70
2023/11/29 20:25:29;;;;;;;4.32;3.58;;;;;;;0.98;93.40;148915.78;10505774;28;20456;-69
2023/11/29 20:30:31;;;;;;;4.85;4.00;;;;;;;1.08;91.81;148940.13;10506049;28;20040;-70
2023/11/29 20:35:33;;;;;;;3.78;3.15;;;;;;;1.00;92.32;148919.63;10505385;28;20037;-69
2023/11/29 20:40:41;;;;;;;4.07;3.67;;;;;;;1.13;92.01;148951.66;10507158;28;20041;-68
2023/11/29 20:45:49;;;;;;;4.90;4.18;;;;;;;1.17;91.06;148961.91;10505331;28;20058;-70
2023/11/29 20:50:51;;;;;;;3.78;3.33;;;;;;;0.89;92.58;148891.47;10504938;28;20052;-69
2023/11/29 20:55:52;;;;;;;4.53;4.13;;;;;;;0.92;92.12;148900.38;10504743;28;20047;-68
2023/11/29 21:00:54;;;;;;;3.55;3.25;;;;;;;0.80;93.56;148868.34;10504421;28;20048;-69
2023/11/29 21:05:56;;;;;;;5.18;3.70;;;;;;;0.94;92.81;148904.25;10504848;28;20396;-69
2023/11/29 21:10:59;;;;;;;3.75;3.28;;;;;;;0.87;92.33;148887.56;10504380;28;20113;-69
2023/11/29 21:16:02;;;;;;;3.60;3.30;;;;;;;0.78;93.41;148864.53;10505230;28;20044;-68
2023/11/29 21:21:05;;;;;;;3.33;3.03;;;;;;;0.80;93.22;148868.34;10502955;28;20045;-69
2023/11/29 21:26:06;;;;;;;3.47;3.15;;;;;;;0.65;94.11;148831.22;10505416;28;20143;-68
2023/11/29 21:31:08;;;;;;;4.70;3.25;;;;;;;0.58;94.50;148814.59;10504213;28;20053;-69
2023/11/29 21:36:11;;;;;;;4.47;4.07;;;;;;;0.59;94.96;148817.13;10505547;28;20384;-69
2023/11/29 21:41:13;;;;;;;4.40;3.65;;;;;;;0.55;95.02;148805.63;10504248;28;20048;-69
2023/11/29 21:46:14;;;;;;;4.60;4.05;;;;;;;0.68;94.90;148840.19;10504645;28;20404;-70
2023/11/29 21:51:16;;;;;;;4.03;3.45;;;;;;;0.54;95.53;148803.06;10502674;28;20461;-70
2023/11/29 21:56:18;;;;;;;4.93;4.05;;;;;;;0.58;95.81;148813.31;10501239;28;20143;-69
2023/11/29 22:01:22;;;;;;;5.00;4.45;;;;;;;0.59;95.78;148815.88;10502675;28;20045;-69
2023/11/29 22:06:25;;;;;;;4.43;3.92;;;;;;;0.54;94.91;148803.06;10502600;28;20040;-70
2023/11/29 22:11:28;;;;;;;5.85;4.47;;;;;;;0.35;97.51;148755.66;10502808;28;20059;-69
2023/11/29 22:16:30;;;;;;;3.53;3.20;;;;;;;0.01;97.96;148671.19;10501787;28;20062;-69
2023/11/29 22:21:32;;;;;;;4.20;3.72;;;;;;;-0.30;100.00;148594.38;10501907;28;20403;-70
2023/11/29 22:26:42;;;;;;;4.35;3.75;;;;;;;-0.43;100.00;148561.09;10501962;28;20044;-69
2023/11/29 22:31:57;;;;;;;4.07;3.67;;;;;;;-0.43;100.00;148559.81;10502641;28;20036;-69
2023/11/29 22:36:58;;;;;;;2.97;2.60;;;;;;;-0.55;100.00;148531.66;10500656;28;20076;-70
2023/11/29 22:42:00;;;;;;;7.85;3.20;;;;;;;-0.51;100.00;148541.88;10500722;28;20488;-69
2023/11/29 22:47:02;;;;;;;3.90;3.50;;;;;;;-0.39;100.00;148570.06;10500377;28;20083;-70
2023/11/29 22:52:04;;;;;;;5.47;4.05;;;;;;;-0.39;100.00;148570.06;10501557;28;20043;-69
2023/11/29 22:57:07;;;;;;;5.07;4.45;;;;;;;-0.65;100.00;148504.78;10500979;28;20040;-70
2023/11/29 23:02:08;;;;;;;7.28;4.65;;;;;;;-0.47;100.00;148549.59;10500844;28;20041;-69
2023/11/29 23:07:11;;;;;;;5.50;3.67;;;;;;;-0.63;100.00;148511.16;10502240;28;20040;-69
2023/11/29 23:12:12;;;;;;;3.97;3.58;;;;;;;-0.75;100.00;148480.50;10500652;28;20404;-70
2023/11/29 23:17:14;;;;;;;4.82;4.43;;;;;;;-0.55;100.00;148531.66;10500139;28;20044;-69